Terminal Aerodrome Forecast
Issued by NWS

Home | Current Version | Previous Version | Text Only | Print | Product List | Glossary On
Versions: 1 2 3 4 5 6 7 8 9 10 11 12 13 14 15 16 17 18 19 20 21 22 23 24 25 26 27 28
000
FTUS41 KBOX 052324
TAFFMH
TAF
KFMH 052324Z 0600/0624 16006KT P6SM SCT050
     FM060700 VRB04KT 6SM BR BKN080
     FM061100 03004KT P6SM BKN080
     FM061600 10006KT P6SM SCT150
     FM061700 14006KT P6SM SCT150
     FM062000 18007KT P6SM SCT140=

USA.gov is the U.S. government's official web portal to all federal, state and local government web resources and services.